Time;durP1;ratioP1;P1;durP2;ratioP2;P2;SDS_P1;SDS_P2;PMS_P1;PMS_P2;Temp;Humidity;BMP_temperature;BMP_pressure;BME280_temperature;BME280_humidity;BME280_pressure;Samples;Min_cycle;Max_cycle;Signal;HPM_P1;HPM_P2
2022/03/06 00:01:35;;;;;;;;;;;21.70;99.90;;;;;;5014400;28;19916;-75
2022/03/06 00:04:01;;;;;;;;;;;21.80;99.90;;;;;;5014532;28;19909;-74
2022/03/06 00:06:28;;;;;;;;;;;21.90;99.90;;;;;;5014171;28;19913;-75
2022/03/06 00:08:55;;;;;;;;;;;22.00;99.90;;;;;;5012596;28;19920;-76
2022/03/06 00:11:21;;;;;;;;;;;22.00;99.90;;;;;;5014074;28;19920;-76
2022/03/06 00:13:48;;;;;;;;;;;22.10;99.90;;;;;;5014055;28;19916;-76
2022/03/06 00:16:14;;;;;;;;;;;22.10;99.90;;;;;;5014244;28;19910;-75
2022/03/06 00:18:41;;;;;;;;;;;22.10;99.90;;;;;;5014384;28;19909;-74
2022/03/06 00:21:09;;;;;;;;;;;22.00;99.90;;;;;;5014305;28;19972;-74
2022/03/06 00:23:36;;;;;;;;;;;22.00;99.90;;;;;;5013641;28;20269;-74
2022/03/06 00:26:03;;;;;;;;;;;21.90;99.90;;;;;;5013710;28;19910;-75
2022/03/06 00:28:29;;;;;;;;;;;22.00;99.90;;;;;;5014342;28;19913;-75
2022/03/06 00:30:56;;;;;;;;;;;22.10;99.90;;;;;;5014085;28;19909;-75
2022/03/06 00:33:23;;;;;;;;;;;22.30;99.90;;;;;;5013883;28;19910;-75
2022/03/06 00:35:49;;;;;;;;;;;22.40;99.90;;;;;;5013541;28;19955;-75
2022/03/06 00:38:16;;;;;;;;;;;22.40;99.90;;;;;;5013174;28;19910;-75
2022/03/06 00:40:44;;;;;;;;;;;22.50;99.90;;;;;;5013352;28;19917;-75
2022/03/06 00:43:12;;;;;;;;;;;22.40;99.90;;;;;;5013788;28;19956;-77
2022/03/06 00:45:39;;;;;;;;;;;22.20;99.90;;;;;;5013611;28;19909;-75
2022/03/06 00:48:06;;;;;;;;;;;22.10;99.90;;;;;;5013680;28;19940;-75
2022/03/06 00:50:34;;;;;;;;;;;22.30;99.90;;;;;;5013078;28;19916;-76
2022/03/06 00:53:01;;;;;;;;;;;22.30;99.90;;;;;;5013799;28;19909;-74
2022/03/06 00:55:28;;;;;;;;;;;22.40;99.90;;;;;;5013618;28;20877;-75
2022/03/06 00:57:54;;;;;;;;;;;22.40;99.90;;;;;;5013113;28;21325;-75
2022/03/06 01:00:21;;;;;;;;;;;22.30;99.90;;;;;;5013575;28;19914;-74
2022/03/06 01:02:48;;;;;;;;;;;22.30;99.90;;;;;;5013581;28;19925;-74
2022/03/06 01:05:14;;;;;;;;;;;22.30;99.90;;;;;;5013670;28;20279;-75
2022/03/06 01:07:41;;;;;;;;;;;22.40;99.90;;;;;;5012913;28;19918;-75
2022/03/06 01:10:09;;;;;;;;;;;22.50;99.90;;;;;;5013365;28;20299;-76
2022/03/06 01:12:35;;;;;;;;;;;22.50;99.90;;;;;;5013370;28;19915;-75
2022/03/06 01:15:02;;;;;;;;;;;22.60;99.90;;;;;;5013340;28;20012;-75
2022/03/06 01:17:29;;;;;;;;;;;22.70;99.90;;;;;;5013177;28;19910;-75
2022/03/06 01:19:55;;;;;;;;;;;22.80;99.90;;;;;;5013228;28;20352;-74
2022/03/06 01:22:22;;;;;;;;;;;23.00;99.90;;;;;;5013157;28;19936;-74
2022/03/06 01:24:48;;;;;;;;;;;23.40;99.90;;;;;;5012980;28;20004;-75
2022/03/06 01:27:15;;;;;;;;;;;23.50;99.90;;;;;;5013038;28;19971;-73
2022/03/06 01:29:42;;;;;;;;;;;23.50;99.90;;;;;;5012745;28;20368;-73
2022/03/06 01:32:08;;;;;;;;;;;23.40;99.90;;;;;;5013262;28;20060;-74
2022/03/06 01:34:35;;;;;;;;;;;23.30;99.90;;;;;;4995315;28;20313;-74
2022/03/06 01:37:02;;;;;;;;;;;23.20;99.90;;;;;;5012990;28;19937;-73
2022/03/06 01:39:28;;;;;;;;;;;23.30;99.90;;;;;;5013125;28;20053;-74
2022/03/06 01:41:55;;;;;;;;;;;23.20;99.90;;;;;;5012860;28;20272;-75
2022/03/06 01:44:22;;;;;;;;;;;23.20;99.90;;;;;;5010755;28;19916;-73
2022/03/06 01:46:49;;;;;;;;;;;23.20;99.90;;;;;;5012132;28;20506;-73
2022/03/06 01:49:16;;;;;;;;;;;23.30;99.90;;;;;;5012648;28;19916;-74
2022/03/06 01:51:43;;;;;;;;;;;23.20;99.90;;;;;;5012634;28;20015;-74
2022/03/06 01:54:10;;;;;;;;;;;23.20;99.90;;;;;;5012445;28;19913;-75
2022/03/06 01:56:36;;;;;;;;;;;23.10;99.90;;;;;;5012752;28;20281;-75
2022/03/06 01:59:04;;;;;;;;;;;23.10;99.90;;;;;;5012519;28;20375;-75
2022/03/06 02:01:31;;;;;;;;;;;23.20;99.90;;;;;;5012718;28;19953;-75
2022/03/06 02:03:57;;;;;;;;;;;23.20;99.90;;;;;;5012548;28;19910;-75
2022/03/06 02:06:25;;;;;;;;;;;23.20;99.90;;;;;;5012535;28;20011;-75
2022/03/06 02:08:52;;;;;;;;;;;23.10;99.90;;;;;;5012580;28;19928;-74
2022/03/06 02:11:19;;;;;;;;;;;23.00;99.90;;;;;;5012943;28;19940;-74
2022/03/06 02:13:45;;;;;;;;;;;22.90;99.90;;;;;;5012224;28;19914;-75
2022/03/06 02:16:12;;;;;;;;;;;22.70;99.90;;;;;;4995040;28;20040;-74
2022/03/06 02:18:39;;;;;;;;;;;22.60;99.90;;;;;;5012538;28;20375;-74
2022/03/06 02:21:07;;;;;;;;;;;22.50;99.90;;;;;;5012406;28;19909;-74
2022/03/06 02:23:33;;;;;;;;;;;22.50;99.90;;;;;;5011836;28;20253;-73
2022/03/06 02:26:00;;;;;;;;;;;22.40;99.90;;;;;;5012204;28;19932;-74
2022/03/06 02:28:27;;;;;;;;;;;22.20;99.90;;;;;;5012300;28;20070;-75
2022/03/06 02:30:55;;;;;;;;;;;22.20;99.90;;;;;;5012742;28;19913;-73
2022/03/06 02:33:22;;;;;;;;;;;22.20;99.90;;;;;;5012540;28;20356;-73
2022/03/06 02:35:49;;;;;;;;;;;22.10;99.90;;;;;;5012509;28;20352;-74
2022/03/06 02:38:15;;;;;;;;;;;22.20;99.90;;;;;;5012321;28;20003;-74
2022/03/06 02:40:44;;;;;;;;;;;22.20;99.90;;;;;;5012318;28;19932;-74
2022/03/06 02:43:11;;;;;;;;;;;22.20;99.90;;;;;;5011101;28;20390;-73
2022/03/06 02:45:39;;;;;;;;;;;22.40;99.90;;;;;;5012030;28;19909;-74
2022/03/06 02:48:06;;;;;;;;;;;22.40;99.90;;;;;;5011821;28;20367;-75
2022/03/06 02:50:34;;;;;;;;;;;22.40;99.90;;;;;;5012374;28;20334;-73
2022/03/06 02:53:02;;;;;;;;;;;22.30;99.90;;;;;;5012276;28;20298;-73
2022/03/06 02:55:28;;;;;;;;;;;22.40;99.90;;;;;;5012578;28;19910;-73
2022/03/06 02:57:55;;;;;;;;;;;22.20;99.90;;;;;;5011685;28;20322;-74
2022/03/06 03:00:23;;;;;;;;;;;22.10;99.90;;;;;;5013511;28;19975;-74
2022/03/06 03:02:50;;;;;;;;;;;22.00;99.90;;;;;;5016058;28;19909;-73
2022/03/06 03:05:17;;;;;;;;;;;21.90;99.90;;;;;;5015804;28;19996;-74
2022/03/06 03:07:48;;;;;;;;;;;21.80;99.90;;;;;;5015405;28;19929;-74
2022/03/06 03:10:16;;;;;;;;;;;21.70;99.90;;;;;;5015813;28;20011;-73
2022/03/06 03:12:43;;;;;;;;;;;21.70;99.90;;;;;;5015369;28;19910;-73
2022/03/06 03:15:10;;;;;;;;;;;21.70;99.90;;;;;;5015579;28;19913;-74
2022/03/06 03:17:37;;;;;;;;;;;21.70;99.90;;;;;;5015415;28;20218;-74
2022/03/06 03:20:05;;;;;;;;;;;21.80;99.90;;;;;;5015677;28;19920;-74
2022/03/06 03:22:31;;;;;;;;;;;21.80;99.90;;;;;;5015549;28;19917;-74
2022/03/06 03:24:58;;;;;;;;;;;21.80;99.90;;;;;;5015467;28;19913;-74
2022/03/06 03:27:24;;;;;;;;;;;21.90;99.90;;;;;;5015172;28;19921;-74
2022/03/06 03:29:51;;;;;;;;;;;21.80;99.90;;;;;;5015284;28;19909;-75
2022/03/06 03:32:18;;;;;;;;;;;21.80;99.90;;;;;;5015341;28;20420;-73
2022/03/06 03:34:44;;;;;;;;;;;22.00;99.90;;;;;;5015214;28;19920;-75
2022/03/06 03:37:11;;;;;;;;;;;22.00;99.90;;;;;;5015084;28;19917;-75
2022/03/06 03:39:37;;;;;;;;;;;22.00;99.90;;;;;;5014865;28;19910;-74
2022/03/06 03:42:04;;;;;;;;;;;22.00;99.90;;;;;;5015307;28;20504;-74
2022/03/06 03:44:31;;;;;;;;;;;22.20;99.90;;;;;;5014895;28;20036;-75
2022/03/06 03:46:58;;;;;;;;;;;22.30;99.90;;;;;;5015133;28;19924;-73
2022/03/06 03:49:25;;;;;;;;;;;22.30;99.90;;;;;;5014770;28;19924;-73
2022/03/06 03:51:52;;;;;;;;;;;22.20;99.90;;;;;;5014757;28;19909;-74
2022/03/06 03:54:18;;;;;;;;;;;22.30;99.90;;;;;;5014863;28;19913;-74
2022/03/06 03:56:45;;;;;;;;;;;22.20;99.90;;;;;;5014604;28;20275;-73
2022/03/06 03:59:12;;;;;;;;;;;22.10;99.90;;;;;;5014148;28;19928;-74
2022/03/06 04:01:38;;;;;;;;;;;22.00;99.90;;;;;;5014477;28;19976;-75
2022/03/06 04:04:05;;;;;;;;;;;21.90;99.90;;;;;;5014744;28;19932;-73
2022/03/06 04:06:32;;;;;;;;;;;21.90;99.90;;;;;;5014566;28;19969;-73
2022/03/06 04:08:58;;;;;;;;;;;21.90;99.90;;;;;;5014802;28;19975;-71
2022/03/06 04:11:25;;;;;;;;;;;21.80;99.90;;;;;;5014423;28;19936;-73
2022/03/06 04:13:52;;;;;;;;;;;21.80;99.90;;;;;;5014330;28;19926;-72
2022/03/06 04:16:18;;;;;;;;;;;21.70;99.90;;;;;;5014595;28;20467;-72
2022/03/06 04:18:45;;;;;;;;;;;21.70;99.90;;;;;;5014465;28;19921;-72
2022/03/06 04:21:11;;;;;;;;;;;21.60;99.90;;;;;;5014690;28;19914;-73
2022/03/06 04:23:38;;;;;;;;;;;21.50;99.90;;;;;;5014055;28;20015;-73
2022/03/06 04:26:05;;;;;;;;;;;21.50;99.90;;;;;;5014291;28;19913;-74
2022/03/06 04:28:31;;;;;;;;;;;21.40;99.90;;;;;;5014029;28;19913;-75
2022/03/06 04:30:58;;;;;;;;;;;21.50;99.90;;;;;;5014362;28;19910;-72
2022/03/06 04:33:25;;;;;;;;;;;21.40;99.90;;;;;;5014062;28;19972;-73
2022/03/06 04:35:52;;;;;;;;;;;21.40;99.90;;;;;;5013873;28;19913;-71
2022/03/06 04:38:18;;;;;;;;;;;21.40;99.90;;;;;;5014017;28;19910;-73
2022/03/06 04:40:46;;;;;;;;;;;21.40;99.90;;;;;;5014093;28;19909;-72
2022/03/06 04:43:13;;;;;;;;;;;21.40;99.90;;;;;;5014236;28;20360;-74
2022/03/06 04:45:40;;;;;;;;;;;21.40;99.90;;;;;;5013539;28;19917;-73
2022/03/06 04:48:06;;;;;;;;;;;21.40;99.90;;;;;;5013817;28;19918;-74
2022/03/06 04:50:33;;;;;;;;;;;21.40;99.90;;;;;;5013805;28;20399;-72
2022/03/06 04:52:59;;;;;;;;;;;21.40;99.90;;;;;;5013979;28;19910;-74
2022/03/06 04:55:26;;;;;;;;;;;21.40;99.90;;;;;;5013633;28;19916;-73
2022/03/06 04:57:53;;;;;;;;;;;21.30;99.90;;;;;;5013299;28;19957;-75
2022/03/06 05:00:19;;;;;;;;;;;21.30;99.90;;;;;;5013853;28;19963;-73
2022/03/06 05:02:46;;;;;;;;;;;21.40;99.90;;;;;;5013553;28;19964;-74
2022/03/06 05:05:13;;;;;;;;;;;21.40;99.90;;;;;;5013510;28;20328;-74
2022/03/06 05:07:39;;;;;;;;;;;21.30;99.90;;;;;;5013287;28;20019;-73
2022/03/06 05:10:10;;;;;;;;;;;21.30;99.90;;;;;;5012833;28;20282;-73
2022/03/06 05:12:38;;;;;;;;;;;21.30;99.90;;;;;;5013160;28;19964;-72
2022/03/06 05:15:04;;;;;;;;;;;21.30;99.90;;;;;;5013420;28;19953;-74
2022/03/06 05:17:31;;;;;;;;;;;21.40;99.90;;;;;;5013449;28;19910;-74
2022/03/06 05:19:58;;;;;;;;;;;21.30;99.90;;;;;;5013385;28;19910;-74
2022/03/06 05:22:24;;;;;;;;;;;21.30;99.90;;;;;;5012964;28;19996;-74
2022/03/06 05:24:51;;;;;;;;;;;21.40;99.90;;;;;;5013544;28;19913;-73
2022/03/06 05:27:18;;;;;;;;;;;21.40;99.90;;;;;;5013047;28;19917;-74
2022/03/06 05:29:44;;;;;;;;;;;21.50;99.90;;;;;;5013180;28;19913;-71
2022/03/06 05:32:11;;;;;;;;;;;21.50;99.90;;;;;;5013190;28;19910;-72
2022/03/06 05:34:38;;;;;;;;;;;21.50;99.90;;;;;;5013072;28;20409;-72
2022/03/06 05:37:04;;;;;;;;;;;21.50;99.90;;;;;;5013217;28;19913;-73
2022/03/06 05:39:31;;;;;;;;;;;21.50;99.90;;;;;;5013040;28;19909;-72
2022/03/06 05:41:58;;;;;;;;;;;21.60;99.90;;;;;;5012976;28;19909;-73
2022/03/06 05:44:25;;;;;;;;;;;21.50;99.90;;;;;;5013070;28;20374;-73
2022/03/06 05:46:51;;;;;;;;;;;21.60;99.90;;;;;;5013004;28;19913;-72
2022/03/06 05:49:18;;;;;;;;;;;21.70;99.90;;;;;;5012952;28;19909;-72
2022/03/06 05:51:45;;;;;;;;;;;21.70;99.90;;;;;;5012696;28;19913;-73
2022/03/06 05:54:12;;;;;;;;;;;21.70;99.90;;;;;;5012878;28;20008;-73
2022/03/06 05:56:41;;;;;;;;;;;21.80;99.90;;;;;;5012858;28;20395;-73
2022/03/06 05:59:08;;;;;;;;;;;21.80;99.90;;;;;;5012490;28;20334;-73
2022/03/06 06:01:35;;;;;;;;;;;21.90;99.90;;;;;;5012579;28;20036;-73
2022/03/06 06:04:02;;;;;;;;;;;21.90;99.90;;;;;;5012923;28;20292;-75
2022/03/06 06:06:28;;;;;;;;;;;21.80;99.90;;;;;;5012753;28;19923;-74
2022/03/06 06:08:55;;;;;;;;;;;21.90;99.90;;;;;;5012788;28;20431;-74
2022/03/06 06:11:22;;;;;;;;;;;22.00;99.90;;;;;;5012791;28;20326;-74
2022/03/06 06:13:49;;;;;;;;;;;22.00;99.90;;;;;;5012223;28;20340;-73
2022/03/06 06:16:16;;;;;;;;;;;22.10;99.90;;;;;;5012749;28;19920;-75
2022/03/06 06:18:42;;;;;;;;;;;22.00;99.90;;;;;;4995082;28;19910;-74
2022/03/06 06:21:10;;;;;;;;;;;22.00;99.90;;;;;;5012619;28;20008;-75
2022/03/06 06:23:37;;;;;;;;;;;22.10;99.90;;;;;;5012228;28;19909;-74
2022/03/06 06:26:03;;;;;;;;;;;22.10;99.90;;;;;;5012531;28;19910;-74
2022/03/06 06:28:30;;;;;;;;;;;22.20;99.90;;;;;;5012273;28;19917;-73
2022/03/06 06:30:57;;;;;;;;;;;22.20;99.90;;;;;;5012485;28;19929;-74
2022/03/06 06:33:23;;;;;;;;;;;22.20;99.90;;;;;;5012223;28;20063;-73
2022/03/06 06:35:50;;;;;;;;;;;22.20;99.90;;;;;;5014468;28;20003;-74
2022/03/06 06:38:17;;;;;;;;;;;22.30;99.90;;;;;;5016327;28;20007;-73
2022/03/06 06:40:44;;;;;;;;;;;22.40;99.90;;;;;;5016235;28;20288;-73
2022/03/06 06:43:10;;;;;;;;;;;22.50;99.90;;;;;;5015992;28;19945;-74
2022/03/06 06:45:37;;;;;;;;;;;22.50;99.90;;;;;;5016128;28;19913;-75
2022/03/06 06:48:04;;;;;;;;;;;22.50;99.90;;;;;;5016113;28;19956;-73
2022/03/06 06:50:30;;;;;;;;;;;22.50;99.90;;;;;;5016250;28;19913;-73
2022/03/06 06:52:57;;;;;;;;;;;22.40;99.90;;;;;;5015963;28;19972;-75
2022/03/06 06:55:24;;;;;;;;;;;22.40;99.90;;;;;;5015981;28;19913;-75
2022/03/06 06:57:51;;;;;;;;;;;22.50;99.90;;;;;;5015508;28;20296;-74
2022/03/06 07:00:17;;;;;;;;;;;22.50;99.90;;;;;;5015827;28;19925;-74
2022/03/06 07:02:44;;;;;;;;;;;22.40;99.90;;;;;;5016023;28;19914;-73
2022/03/06 07:05:11;;;;;;;;;;;22.30;99.90;;;;;;5016156;28;19910;-74
2022/03/06 07:07:38;;;;;;;;;;;22.30;99.90;;;;;;5015508;28;19923;-74
2022/03/06 07:10:05;;;;;;;;;;;22.20;99.90;;;;;;5015708;28;20000;-74
2022/03/06 07:12:40;;;;;;;;;;;22.10;99.90;;;;;;5013217;28;20004;-71
2022/03/06 07:15:07;;;;;;;;;;;22.10;99.90;;;;;;5015797;28;19952;-74
2022/03/06 07:17:34;;;;;;;;;;;22.10;99.90;;;;;;5015202;28;20000;-73
2022/03/06 07:20:00;;;;;;;;;;;22.00;99.90;;;;;;5015027;28;19909;-73
2022/03/06 07:22:27;;;;;;;;;;;22.00;99.90;;;;;;5015553;28;20394;-73
2022/03/06 07:24:54;;;;;;;;;;;22.00;99.90;;;;;;5015390;28;19913;-73
2022/03/06 07:27:20;;;;;;;;;;;22.00;99.90;;;;;;5015433;28;19994;-73
2022/03/06 07:29:47;;;;;;;;;;;22.00;99.90;;;;;;5015492;28;19910;-74
2022/03/06 07:32:14;;;;;;;;;;;22.00;99.90;;;;;;5015522;28;19917;-73
2022/03/06 07:34:41;;;;;;;;;;;22.00;99.90;;;;;;5014866;28;19971;-75
2022/03/06 07:37:08;;;;;;;;;;;22.00;99.90;;;;;;5015182;28;20394;-75
2022/03/06 07:39:34;;;;;;;;;;;22.00;99.90;;;;;;5014995;28;19916;-73
2022/03/06 07:42:01;;;;;;;;;;;22.00;99.90;;;;;;5015054;28;19917;-73
2022/03/06 07:44:27;;;;;;;;;;;22.00;99.90;;;;;;5015072;28;20012;-73
2022/03/06 07:46:54;;;;;;;;;;;22.00;99.90;;;;;;5014620;28;20003;-73
2022/03/06 07:49:21;;;;;;;;;;;22.10;99.90;;;;;;4996978;28;20265;-73
2022/03/06 07:51:47;;;;;;;;;;;22.10;99.90;;;;;;5014806;28;19956;-74
2022/03/06 07:54:14;;;;;;;;;;;22.10;99.90;;;;;;5015135;28;19910;-74
2022/03/06 07:56:41;;;;;;;;;;;22.10;99.90;;;;;;5014789;28;20000;-74
2022/03/06 07:59:08;;;;;;;;;;;22.10;99.90;;;;;;5014778;28;19996;-73
2022/03/06 08:01:34;;;;;;;;;;;22.10;99.90;;;;;;5014472;28;19959;-72
2022/03/06 08:04:01;;;;;;;;;;;22.00;99.90;;;;;;5014345;28;19909;-72
2022/03/06 08:06:28;;;;;;;;;;;22.00;99.90;;;;;;5014638;28;20267;-73
2022/03/06 08:08:54;;;;;;;;;;;22.00;99.90;;;;;;5014742;28;19917;-72
2022/03/06 08:11:21;;;;;;;;;;;22.10;99.90;;;;;;5014868;28;19937;-71
2022/03/06 08:13:47;;;;;;;;;;;22.00;99.90;;;;;;5014328;28;20000;-73
2022/03/06 08:16:14;;;;;;;;;;;22.00;99.90;;;;;;5014442;28;19947;-73
2022/03/06 08:18:41;;;;;;;;;;;22.10;99.90;;;;;;5013970;28;20276;-72
2022/03/06 08:21:08;;;;;;;;;;;22.10;99.90;;;;;;5014617;28;19909;-73
2022/03/06 08:23:34;;;;;;;;;;;22.10;99.90;;;;;;5014272;28;19959;-74
2022/03/06 08:26:01;;;;;;;;;;;22.10;99.90;;;;;;5013188;28;19914;-73
2022/03/06 08:28:27;;;;;;;;;;;22.10;99.90;;;;;;5014257;28;19917;-74
2022/03/06 08:30:54;;;;;;;;;;;22.10;99.90;;;;;;5014328;28;19960;-73
2022/03/06 08:33:21;;;;;;;;;;;22.10;99.90;;;;;;5014128;28;19910;-73
2022/03/06 08:35:47;;;;;;;;;;;22.10;99.90;;;;;;5013675;28;19910;-75
2022/03/06 08:38:14;;;;;;;;;;;22.10;99.90;;;;;;5014100;28;20284;-74
2022/03/06 08:40:40;;;;;;;;;;;22.10;99.90;;;;;;5014151;28;19909;-73
2022/03/06 08:43:07;;;;;;;;;;;22.20;99.90;;;;;;5013947;28;19916;-74
2022/03/06 08:45:34;;;;;;;;;;;22.20;99.90;;;;;;5013987;28;20011;-73
2022/03/06 08:48:00;;;;;;;;;;;22.20;99.90;;;;;;5014003;28;20011;-74
2022/03/06 08:50:27;;;;;;;;;;;22.20;99.90;;;;;;5013830;28;19917;-74
2022/03/06 08:52:53;;;;;;;;;;;22.20;99.90;;;;;;5013949;28;19910;-74
2022/03/06 08:55:20;;;;;;;;;;;22.30;99.90;;;;;;5013710;28;19916;-73
2022/03/06 08:57:47;;;;;;;;;;;22.20;99.90;;;;;;5012515;28;19909;-74
2022/03/06 09:00:14;;;;;;;;;;;22.30;99.90;;;;;;5010208;28;19940;-74
2022/03/06 09:02:40;;;;;;;;;;;22.30;99.90;;;;;;4994133;28;19953;-74
2022/03/06 09:05:07;;;;;;;;;;;22.30;99.90;;;;;;4994135;28;19910;-74
2022/03/06 09:07:34;;;;;;;;;;;22.40;99.90;;;;;;4994048;28;19922;-74
2022/03/06 09:10:00;;;;;;;;;;;22.40;99.90;;;;;;4994320;28;19909;-75
2022/03/06 09:12:27;;;;;;;;;;;22.40;99.90;;;;;;4993820;28;19917;-72
2022/03/06 09:14:54;;;;;;;;;;;22.40;99.90;;;;;;4993648;28;19914;-73
2022/03/06 09:17:21;;;;;;;;;;;22.40;99.90;;;;;;4993633;28;19914;-74
2022/03/06 09:19:48;;;;;;;;;;;22.40;99.90;;;;;;4993720;28;19913;-75
2022/03/06 09:22:15;;;;;;;;;;;22.30;99.90;;;;;;4993826;28;19974;-76
2022/03/06 09:24:41;;;;;;;;;;;22.30;99.90;;;;;;4993790;28;19910;-75
2022/03/06 09:27:08;;;;;;;;;;;22.30;99.90;;;;;;4993632;28;19960;-74
2022/03/06 09:29:35;;;;;;;;;;;22.30;99.90;;;;;;4993630;28;20372;-74
2022/03/06 09:32:02;;;;;;;;;;;22.20;99.90;;;;;;4993752;28;19914;-74
2022/03/06 09:34:28;;;;;;;;;;;22.20;99.90;;;;;;4993760;28;19921;-74
2022/03/06 09:36:55;;;;;;;;;;;22.20;99.90;;;;;;4993540;28;19909;-74
2022/03/06 09:39:21;;;;;;;;;;;22.20;99.90;;;;;;4993689;28;19942;-74
2022/03/06 09:41:51;;;;;;;;;;;22.20;99.90;;;;;;4993321;28;19916;-74
2022/03/06 09:44:18;;;;;;;;;;;22.20;99.90;;;;;;4993593;28;19909;-75
2022/03/06 09:46:45;;;;;;;;;;;22.20;99.90;;;;;;4993514;28;19949;-75
2022/03/06 09:49:11;;;;;;;;;;;22.10;99.90;;;;;;4993414;28;19910;-75
2022/03/06 09:51:42;;;;;;;;;;;22.10;99.90;;;;;;4993357;28;19944;-75
2022/03/06 09:54:10;;;;;;;;;;;22.10;99.90;;;;;;4993695;28;19948;-73
2022/03/06 09:56:36;;;;;;;;;;;22.20;99.90;;;;;;4993128;28;20328;-74
2022/03/06 09:59:03;;;;;;;;;;;22.20;99.90;;;;;;4993123;28;20354;-74
2022/03/06 10:01:30;;;;;;;;;;;22.30;99.90;;;;;;4993258;28;19910;-74
2022/03/06 10:03:57;;;;;;;;;;;22.30;99.90;;;;;;4993377;28;20079;-75
2022/03/06 10:06:26;;;;;;;;;;;22.30;99.90;;;;;;4993297;28;19910;-75
2022/03/06 10:09:04;;;;;;;;;;;22.30;99.90;;;;;;4994966;28;20012;-75
2022/03/06 10:11:31;;;;;;;;;;;22.40;99.90;;;;;;4999716;28;19969;-75
2022/03/06 10:13:57;;;;;;;;;;;22.40;99.90;;;;;;4999889;28;19910;-74
2022/03/06 10:16:24;;;;;;;;;;;22.40;99.90;;;;;;4999751;28;19920;-74
2022/03/06 10:18:52;;;;;;;;;;;22.40;99.90;;;;;;4999838;28;19917;-75
2022/03/06 10:21:23;;;;;;;;;;;22.40;99.90;;;;;;4999674;28;19964;-75
2022/03/06 10:23:51;;;;;;;;;;;22.50;99.90;;;;;;4999403;28;19953;-74
2022/03/06 10:26:19;;;;;;;;;;;22.50;99.90;;;;;;4999345;28;19910;-74
2022/03/06 10:28:56;;;;;;;;;;;22.50;99.90;;;;;;4999843;28;19968;-74
2022/03/06 10:31:23;;;;;;;;;;;22.50;99.90;;;;;;4999488;28;19932;-75
2022/03/06 10:34:04;;;;;;;;;;;22.60;99.90;;;;;;4999272;28;19964;-75
2022/03/06 10:36:32;;;;;;;;;;;22.60;99.90;;;;;;4999556;28;19914;-75
2022/03/06 10:38:59;;;;;;;;;;;22.60;99.90;;;;;;4999561;28;20336;-76
2022/03/06 10:41:33;;;;;;;;;;;22.60;99.90;;;;;;4999426;28;20321;-75
2022/03/06 10:44:00;;;;;;;;;;;22.60;99.90;;;;;;4999366;28;19909;-75
2022/03/06 10:46:27;;;;;;;;;;;22.50;99.90;;;;;;4999305;28;20400;-74
2022/03/06 10:48:53;;;;;;;;;;;22.50;99.90;;;;;;4999383;28;19920;-74
2022/03/06 10:51:20;;;;;;;;;;;22.50;99.90;;;;;;4999539;28;19910;-75
2022/03/06 10:53:54;;;;;;;;;;;22.50;99.90;;;;;;4999064;28;20103;-75
2022/03/06 10:56:21;;;;;;;;;;;22.50;99.90;;;;;;4999318;28;20392;-75
2022/03/06 10:58:48;;;;;;;;;;;22.40;99.90;;;;;;4999106;28;19922;-75
2022/03/06 11:01:15;;;;;;;;;;;22.40;99.90;;;;;;4999236;28;19953;-74
2022/03/06 11:03:42;;;;;;;;;;;22.40;99.90;;;;;;4999101;28;19913;-74
2022/03/06 11:06:09;;;;;;;;;;;22.30;99.90;;;;;;4999212;28;20004;-74
2022/03/06 11:08:37;;;;;;;;;;;22.30;99.90;;;;;;4999306;28;19918;-73
2022/03/06 11:11:07;;;;;;;;;;;22.40;99.90;;;;;;4999070;28;20040;-74
2022/03/06 11:13:34;;;;;;;;;;;22.40;99.90;;;;;;4999248;28;19916;-75
2022/03/06 11:16:04;;;;;;;;;;;22.40;99.90;;;;;;5010746;28;19916;-74
2022/03/06 11:18:31;;;;;;;;;;;22.40;99.90;;;;;;5018809;28;19910;-74
2022/03/06 11:20:58;;;;;;;;;;;22.40;99.90;;;;;;5016763;28;19910;-74
2022/03/06 11:23:36;;;;;;;;;;;22.40;99.90;;;;;;5015810;28;19916;-74
2022/03/06 11:26:14;;;;;;;;;;;22.40;99.90;;;;;;5015340;28;19910;-74
2022/03/06 11:28:44;;;;;;;;;;;22.40;99.90;;;;;;5015456;28;19940;-75
2022/03/06 11:31:11;;;;;;;;;;;22.40;99.90;;;;;;5015253;28;19955;-74
2022/03/06 11:33:44;;;;;;;;;;;22.40;99.90;;;;;;5015200;28;19916;-73
2022/03/06 11:36:26;;;;;;;;;;;22.40;99.90;;;;;;5015266;28;19910;-74
2022/03/06 11:38:54;;;;;;;;;;;22.40;99.90;;;;;;5015058;28;20325;-76
2022/03/06 11:41:21;;;;;;;;;;;22.40;99.90;;;;;;5015210;28;19909;-74
2022/03/06 11:43:49;;;;;;;;;;;22.40;99.90;;;;;;5014376;28;19909;-74
2022/03/06 11:46:18;;;;;;;;;;;22.40;99.90;;;;;;5015115;28;19909;-75
2022/03/06 11:48:45;;;;;;;;;;;22.40;99.90;;;;;;5015552;28;19922;-76
2022/03/06 11:51:20;;;;;;;;;;;22.40;99.90;;;;;;5014936;28;19913;-75
2022/03/06 11:53:50;;;;;;;;;;;22.40;99.90;;;;;;5014832;28;19917;-74
2022/03/06 11:56:31;;;;;;;;;;;22.40;99.90;;;;;;5014861;28;19936;-75
2022/03/06 11:59:02;;;;;;;;;;;22.40;99.90;;;;;;5014173;28;19921;-75
2022/03/06 12:01:33;;;;;;;;;;;22.40;99.90;;;;;;5015053;28;19909;-74
2022/03/06 12:04:10;;;;;;;;;;;22.50;99.90;;;;;;5014953;28;19915;-75
2022/03/06 12:06:40;;;;;;;;;;;22.40;99.90;;;;;;5014799;28;19909;-74
2022/03/06 12:09:17;;;;;;;;;;;22.40;99.90;;;;;;5014799;28;19910;-74
2022/03/06 12:11:44;;;;;;;;;;;22.40;99.90;;;;;;5014150;28;19916;-74
2022/03/06 12:14:35;;;;;;;;;;;22.50;99.90;;;;;;5013972;28;19910;-75
2022/03/06 12:17:04;;;;;;;;;;;22.50;99.90;;;;;;5014826;28;20000;-75
2022/03/06 12:19:37;;;;;;;;;;;22.50;99.90;;;;;;5014376;28;19910;-76
2022/03/06 12:22:20;;;;;;;;;;;22.50;99.90;;;;;;5014725;28;20458;-76
2022/03/06 12:24:48;;;;;;;;;;;22.60;99.90;;;;;;5014007;28;19953;-77
2022/03/06 12:27:14;;;;;;;;;;;22.60;99.90;;;;;;5014162;28;19922;-74
2022/03/06 12:29:47;;;;;;;;;;;22.60;99.90;;;;;;5013443;28;20390;-77
2022/03/06 12:32:29;;;;;;;;;;;22.70;99.90;;;;;;5013222;28;19909;-76
2022/03/06 12:34:59;;;;;;;;;;;22.70;99.90;;;;;;5014192;28;19917;-76
2022/03/06 12:37:27;;;;;;;;;;;22.70;99.90;;;;;;5013899;28;20325;-76
2022/03/06 12:39:55;;;;;;;;;;;22.70;99.90;;;;;;5013842;28;20292;-75
2022/03/06 12:42:25;;;;;;;;;;;22.70;99.90;;;;;;5014261;28;19936;-74
2022/03/06 12:44:56;;;;;;;;;;;22.70;99.90;;;;;;5014182;28;19914;-75
2022/03/06 12:47:23;;;;;;;;;;;22.70;99.90;;;;;;5013993;28;19956;-76
2022/03/06 12:49:51;;;;;;;;;;;22.70;99.90;;;;;;5013600;28;19963;-75
2022/03/06 12:52:18;;;;;;;;;;;22.70;99.90;;;;;;5014200;28;19917;-74
2022/03/06 12:54:49;;;;;;;;;;;22.70;99.90;;;;;;5013761;28;20320;-73
2022/03/06 12:57:15;;;;;;;;;;;22.70;99.90;;;;;;5013879;28;19959;-75
2022/03/06 12:59:43;;;;;;;;;;;22.80;99.90;;;;;;5013532;28;19925;-75
2022/03/06 13:02:10;;;;;;;;;;;22.70;99.90;;;;;;5013832;28;20000;-74
2022/03/06 13:04:37;;;;;;;;;;;22.80;99.90;;;;;;5014005;28;19910;-75
2022/03/06 13:07:05;;;;;;;;;;;22.80;99.90;;;;;;5013696;28;20400;-74
2022/03/06 13:09:36;;;;;;;;;;;22.80;99.90;;;;;;5013384;28;19909;-73
2022/03/06 13:12:04;;;;;;;;;;;22.80;99.90;;;;;;5013856;28;19916;-74
2022/03/06 13:14:33;;;;;;;;;;;22.80;99.90;;;;;;5013519;28;19916;-74
2022/03/06 13:17:01;;;;;;;;;;;22.80;99.90;;;;;;5013402;28;19914;-74
2022/03/06 13:19:35;;;;;;;;;;;22.80;99.90;;;;;;5013453;28;19909;-75
2022/03/06 13:22:05;;;;;;;;;;;22.80;99.90;;;;;;5013588;28;20356;-74
2022/03/06 13:24:37;;;;;;;;;;;22.80;99.90;;;;;;5013456;28;19910;-75
2022/03/06 13:27:04;;;;;;;;;;;22.90;99.90;;;;;;5013353;28;20391;-74
2022/03/06 13:29:31;;;;;;;;;;;22.80;99.90;;;;;;5013496;28;19916;-73
2022/03/06 13:31:58;;;;;;;;;;;22.80;99.90;;;;;;5013402;28;19909;-75
2022/03/06 13:34:26;;;;;;;;;;;22.70;99.90;;;;;;5013445;28;19913;-74
2022/03/06 13:36:52;;;;;;;;;;;22.70;99.90;;;;;;5013050;28;19917;-74
2022/03/06 13:39:20;;;;;;;;;;;22.70;99.90;;;;;;5013074;28;19953;-74
2022/03/06 13:41:58;;;;;;;;;;;22.60;99.90;;;;;;5012845;28;19909;-74
2022/03/06 13:44:28;;;;;;;;;;;22.60;99.90;;;;;;5012768;28;19920;-75
2022/03/06 13:46:55;;;;;;;;;;;22.60;99.90;;;;;;5013070;28;19960;-75
2022/03/06 13:49:23;;;;;;;;;;;22.60;99.90;;;;;;5013097;28;19922;-74
2022/03/06 13:52:04;;;;;;;;;;;22.50;99.90;;;;;;5012887;28;19936;-74
2022/03/06 13:54:36;;;;;;;;;;;22.50;99.90;;;;;;5012896;28;19964;-75
2022/03/06 13:57:03;;;;;;;;;;;22.50;99.90;;;;;;5012936;28;20383;-74
2022/03/06 13:59:32;;;;;;;;;;;22.50;99.90;;;;;;5012880;28;19929;-75
2022/03/06 14:02:09;;;;;;;;;;;22.50;99.90;;;;;;5012904;28;19955;-75
2022/03/06 14:04:37;;;;;;;;;;;22.60;99.90;;;;;;5012742;28;19910;-75
2022/03/06 14:07:05;;;;;;;;;;;22.60;99.90;;;;;;5012727;28;19964;-75
2022/03/06 14:09:32;;;;;;;;;;;22.60;99.90;;;;;;5012785;28;20390;-74
2022/03/06 14:12:09;;;;;;;;;;;22.60;99.90;;;;;;5012867;28;19909;-74
2022/03/06 14:14:40;;;;;;;;;;;22.60;99.90;;;;;;5012879;28;19916;-75
2022/03/06 14:17:08;;;;;;;;;;;22.60;99.90;;;;;;5012625;28;20008;-76
2022/03/06 14:19:35;;;;;;;;;;;22.60;99.90;;;;;;5012571;28;19917;-75